Time;durP1;ratioP1;P1;durP2;ratioP2;P2;SDS_P1;SDS_P2;PMS_P1;PMS_P2;Temp;Humidity;BMP_temperature;BMP_pressure;BME280_temperature;BME280_humidity;BME280_pressure;Samples;Min_cycle;Max_cycle;Signal;HPM_P1;HPM_P2
2022/01/20 00:01:47;;;;;;;11.07;2.42;;;4.10;99.90;;;;;;5080549;28;20521;-72
2022/01/20 00:04:21;;;;;;;17.98;3.78;;;3.70;99.90;;;;;;5086829;28;20078;-74
2022/01/20 00:25:51;;;;;;;15.55;2.63;;;3.50;99.90;;;;;;5093792;28;20103;-73
2022/01/20 00:26:31;;;;;;;14.70;3.08;;;3.50;99.90;;;;;;5078835;28;20600;-73
2022/01/20 00:29:00;;;;;;;18.30;2.70;;;3.40;99.90;;;;;;5104814;28;20097;-74
2022/01/20 00:34:15;;;;;;;10.73;2.33;;;3.40;99.90;;;;;;5099751;28;20131;-74
2022/01/20 00:39:26;;;;;;;9.18;2.80;;;3.40;99.90;;;;;;5098865;28;20044;-74
2022/01/20 00:41:52;;;;;;;15.00;2.63;;;3.50;99.90;;;;;;5098318;28;20075;-73
2022/01/20 00:44:18;;;;;;;15.95;3.10;;;3.90;99.90;;;;;;5096576;28;20055;-72
2022/01/20 00:46:44;;;;;;;13.18;3.25;;;3.60;99.90;;;;;;5099424;28;20032;-71
2022/01/20 00:49:10;;;;;;;10.05;2.10;;;3.60;99.90;;;;;;5097870;28;20514;-71
2022/01/20 00:51:35;;;;;;;7.97;1.95;;;3.50;99.90;;;;;;5099590;28;20089;-73
2022/01/20 00:54:01;;;;;;;9.57;1.90;;;3.70;99.90;;;;;;5098835;28;20036;-72
2022/01/20 00:56:27;;;;;;;6.45;1.67;;;3.60;99.90;;;;;;5099173;28;20043;-73
2022/01/20 00:58:53;;;;;;;16.65;1.85;;;3.50;99.90;;;;;;5099313;28;20514;-72
2022/01/20 01:01:18;;;;;;;11.82;2.10;;;3.50;99.90;;;;;;5096721;28;20148;-73
2022/01/20 01:03:44;;;;;;;5.15;1.85;;;3.50;99.90;;;;;;5099282;28;20044;-74
2022/01/20 01:08:41;;;;;;;10.63;1.92;;;3.60;99.90;;;;;;5099615;28;20193;-72
2022/01/20 01:11:07;;;;;;;10.57;1.90;;;3.60;99.90;;;;;;5098351;28;20492;-72
2022/01/20 01:13:33;;;;;;;6.80;2.00;;;3.30;99.90;;;;;;5098409;28;20585;-73
2022/01/20 01:15:59;;;;;;;7.18;1.48;;;3.90;99.90;;;;;;5097617;28;20127;-72
2022/01/20 01:22:03;;;;;;;6.43;2.47;;;3.20;99.90;;;;;;5099189;28;20056;-72
2022/01/20 01:23:58;;;;;;;9.65;2.10;;;3.20;99.90;;;;;;5094955;28;20109;-72
2022/01/20 01:26:27;;;;;;;7.43;1.60;;;3.20;99.90;;;;;;5098567;28;20040;-72
2022/01/20 01:28:56;;;;;;;9.90;1.45;;;3.20;99.90;;;;;;5111000;28;20074;-73
2022/01/20 01:34:13;;;;;;;8.02;1.63;;;3.30;99.90;;;;;;5098981;28;20535;-72
2022/01/20 01:37:03;;;;;;;10.17;2.13;;;3.20;99.90;;;;;;5097834;28;20052;-74
2022/01/20 01:39:29;;;;;;;8.40;2.40;;;3.40;99.90;;;;;;5098387;28;20286;-74
2022/01/20 01:41:56;;;;;;;14.07;1.90;;;3.50;99.90;;;;;;5097536;28;20048;-71
2022/01/20 01:44:26;;;;;;;12.20;1.90;;;3.30;99.90;;;;;;5097430;28;20067;-74
2022/01/20 01:46:53;;;;;;;8.75;1.80;;;3.50;99.90;;;;;;5099013;28;20044;-72
2022/01/20 01:49:20;;;;;;;10.13;2.22;;;3.50;99.90;;;;;;5098065;28;20052;-72
2022/01/20 01:51:46;;;;;;;6.68;1.63;;;3.30;99.90;;;;;;5098732;28;20520;-72
2022/01/20 01:54:13;;;;;;;6.47;1.38;;;3.60;99.90;;;;;;5098292;28;20048;-71
2022/01/20 01:56:40;;;;;;;6.90;1.77;;;3.40;99.90;;;;;;5098118;28;20040;-72
2022/01/20 01:59:06;;;;;;;6.28;1.75;;;3.40;99.90;;;;;;5098805;28;20519;-71
2022/01/20 02:01:36;;;;;;;9.18;1.83;;;3.40;99.90;;;;;;5099729;28;20432;-72
2022/01/20 02:04:13;;;;;;;8.13;1.90;;;3.50;99.90;;;;;;5101983;28;20101;-74
2022/01/20 02:20:12;;;;;;;6.22;1.17;;;3.00;99.90;;;;;;5102074;28;20044;-72
2022/01/20 02:22:38;;;;;;;6.40;1.00;;;3.00;99.90;;;;;;5101282;28;20036;-73
2022/01/20 02:25:04;;;;;;;4.10;1.25;;;3.00;99.90;;;;;;5102103;28;20488;-74
2022/01/20 02:27:30;;;;;;;4.05;1.10;;;2.90;99.90;;;;;;5101562;28;20055;-74
2022/01/20 02:29:56;;;;;;;3.97;1.23;;;2.90;99.90;;;;;;5122297;28;20063;-72
2022/01/20 02:32:21;;;;;;;5.00;1.10;;;2.90;99.90;;;;;;5112605;28;20044;-73
2022/01/20 02:34:47;;;;;;;3.53;1.00;;;2.90;99.90;;;;;;5101538;28;20113;-71
2022/01/20 02:37:15;;;;;;;6.10;1.52;;;2.90;99.90;;;;;;5101629;28;20040;-71
2022/01/20 02:40:02;;;;;;;4.70;1.05;;;2.90;99.90;;;;;;5101011;28;20385;-70
2022/01/20 02:45:11;;;;;;;7.05;1.10;;;3.00;99.90;;;;;;5100648;28;20430;-74
2022/01/20 02:47:36;;;;;;;9.20;2.88;;;3.40;99.90;;;;;;5101305;28;20096;-71
2022/01/20 02:50:03;;;;;;;8.82;1.50;;;3.10;99.90;;;;;;5101273;28;20059;-72
2022/01/20 02:52:29;;;;;;;4.95;1.23;;;3.10;99.90;;;;;;5100961;28;20106;-70
2022/01/20 02:54:55;;;;;;;8.75;1.10;;;3.10;99.90;;;;;;5101446;28;20559;-71
2022/01/20 02:57:21;;;;;;;7.43;1.10;;;3.20;99.90;;;;;;5100497;28;20043;-70
2022/01/20 02:59:47;;;;;;;5.15;1.00;;;3.10;99.90;;;;;;5101526;28;20080;-70
2022/01/20 03:02:13;;;;;;;5.07;1.23;;;3.10;99.90;;;;;;5100643;28;20040;-70
2022/01/20 03:04:39;;;;;;;4.60;1.50;;;3.10;99.90;;;;;;5100995;28;20103;-72
2022/01/20 03:07:05;;;;;;;12.15;1.90;;;3.10;99.90;;;;;;5100916;28;20051;-71
2022/01/20 03:09:32;;;;;;;6.43;1.90;;;3.10;99.90;;;;;;5100711;28;20044;-72
2022/01/20 03:12:00;;;;;;;6.63;1.60;;;3.00;99.90;;;;;;5101200;28;20044;-72
2022/01/20 03:14:26;;;;;;;4.05;1.35;;;2.90;99.90;;;;;;5099629;28;20441;-74
2022/01/20 03:16:52;;;;;;;9.45;1.70;;;2.90;99.90;;;;;;5101244;28;20028;-75
2022/01/20 03:19:18;;;;;;;5.95;1.33;;;3.10;99.90;;;;;;5099762;28;20047;-73
2022/01/20 03:21:44;;;;;;;8.30;2.70;;;3.00;99.90;;;;;;5100777;28;20048;-74
2022/01/20 03:24:10;;;;;;;2.50;1.10;;;2.80;99.90;;;;;;5100662;28;20073;-74
2022/01/20 03:26:37;;;;;;;11.23;1.65;;;2.80;99.90;;;;;;5100508;28;20522;-72
2022/01/20 03:29:04;;;;;;;11.45;1.50;;;2.80;99.90;;;;;;5114291;28;20043;-72
2022/01/20 03:31:31;;;;;;;10.10;1.58;;;2.80;99.90;;;;;;5117783;28;20059;-73
2022/01/20 03:33:57;;;;;;;10.00;3.00;;;2.70;99.90;;;;;;5100838;28;20052;-73
2022/01/20 03:36:24;;;;;;;8.95;1.73;;;2.70;99.90;;;;;;5098354;28;20044;-73
2022/01/20 03:38:49;;;;;;;13.15;2.55;;;2.80;99.90;;;;;;5100623;28;20047;-72
2022/01/20 03:41:16;;;;;;;12.30;2.10;;;2.80;99.90;;;;;;5100403;28;20047;-71
2022/01/20 03:43:42;;;;;;;14.52;2.30;;;2.80;99.90;;;;;;5099302;28;20052;-73
2022/01/20 03:46:12;;;;;;;11.80;2.50;;;2.80;99.90;;;;;;5100624;28;20047;-73
2022/01/20 03:48:49;;;;;;;7.22;1.60;;;2.90;99.90;;;;;;5099346;28;20561;-74
2022/01/20 03:51:23;;;;;;;11.05;2.38;;;2.80;99.90;;;;;;5100918;28;20480;-73
2022/01/20 03:53:51;;;;;;;10.55;2.88;;;2.80;99.90;;;;;;5099501;28;20055;-74
2022/01/20 03:56:18;;;;;;;13.27;2.25;;;2.80;99.90;;;;;;5099774;28;20055;-75
2022/01/20 03:58:45;;;;;;;11.52;2.40;;;2.80;99.90;;;;;;5099547;28;20048;-73
2022/01/20 04:01:11;;;;;;;12.27;3.53;;;2.80;99.90;;;;;;5099054;28;20040;-78
2022/01/20 04:03:37;;;;;;;13.02;2.65;;;2.80;99.90;;;;;;5100198;28;20503;-73
2022/01/20 04:06:03;;;;;;;13.18;2.17;;;2.90;99.90;;;;;;5099380;28;20044;-76
2022/01/20 04:08:32;;;;;;;10.77;2.65;;;2.90;99.90;;;;;;5100265;28;20052;-73
2022/01/20 04:11:06;;;;;;;13.15;2.55;;;3.00;99.90;;;;;;5099380;28;20044;-73
2022/01/20 04:13:32;;;;;;;13.52;3.20;;;2.90;99.90;;;;;;5099022;28;20043;-73
2022/01/20 04:16:00;;;;;;;19.27;3.17;;;3.00;99.90;;;;;;5099634;28;20048;-74
2022/01/20 04:18:27;;;;;;;10.60;2.40;;;3.00;99.90;;;;;;5098825;28;20063;-74
2022/01/20 04:20:53;;;;;;;19.30;3.97;;;2.90;99.90;;;;;;5100009;28;20048;-74
2022/01/20 04:23:19;;;;;;;13.20;2.60;;;2.80;99.90;;;;;;5098574;28;20086;-73
2022/01/20 04:25:45;;;;;;;14.75;2.80;;;2.90;99.90;;;;;;5098655;28;20052;-74
2022/01/20 04:28:11;;;;;;;11.63;2.67;;;2.80;99.90;;;;;;5104103;28;20076;-74
2022/01/20 04:30:37;;;;;;;13.25;2.10;;;2.80;99.90;;;;;;5119579;28;20457;-73
2022/01/20 04:33:03;;;;;;;14.55;3.45;;;2.80;99.90;;;;;;5102813;28;20051;-74
2022/01/20 04:35:29;;;;;;;12.68;2.22;;;3.90;99.90;;;;;;5097273;28;20067;-73
2022/01/20 04:37:56;;;;;;;12.77;2.58;;;2.80;99.90;;;;;;5098515;28;20048;-73
2022/01/20 04:40:22;;;;;;;9.93;2.20;;;2.80;99.90;;;;;;5097898;28;20087;-73
2022/01/20 04:42:50;;;;;;;9.80;1.65;;;2.70;99.90;;;;;;5099742;28;20416;-72
2022/01/20 04:45:29;;;;;;;11.68;3.67;;;2.70;99.90;;;;;;5098303;28;20503;-72
2022/01/20 04:58:37;;;;;;;8.80;2.15;;;2.80;99.90;;;;;;5099085;28;20052;-73
2022/01/20 05:01:03;;;;;;;7.35;1.60;;;2.60;99.90;;;;;;5098208;28;20395;-72
2022/01/20 05:03:29;;;;;;;12.88;1.95;;;2.60;99.90;;;;;;5099439;28;20079;-72
2022/01/20 05:05:55;;;;;;;9.18;2.20;;;2.80;99.90;;;;;;5098473;28;20040;-72
2022/01/20 05:08:27;;;;;;;8.30;1.80;;;2.60;99.90;;;;;;5099299;28;20477;-71
2022/01/20 05:10:53;;;;;;;9.80;2.35;;;2.60;99.90;;;;;;5098635;28;20055;-73
2022/01/20 05:13:26;;;;;;;11.98;1.90;;;2.70;99.90;;;;;;5097464;28;20056;-72
2022/01/20 05:15:52;;;;;;;5.28;1.80;;;2.60;99.90;;;;;;5098705;28;20488;-72
2022/01/20 05:18:18;;;;;;;11.60;2.10;;;2.60;99.90;;;;;;5098150;28;20046;-72
2022/01/20 05:20:43;;;;;;;10.77;3.50;;;2.60;99.90;;;;;;5098921;28;20048;-72
2022/01/20 05:23:09;;;;;;;6.13;1.90;;;2.50;99.90;;;;;;5098254;28;20410;-72
2022/01/20 05:25:35;;;;;;;8.15;2.00;;;2.50;99.90;;;;;;5099400;28;20040;-72
2022/01/20 05:28:01;;;;;;;6.78;1.75;;;2.60;99.90;;;;;;5103043;28;20411;-71
2022/01/20 05:30:26;;;;;;;7.63;2.10;;;2.50;99.90;;;;;;5119033;28;20055;-73
2022/01/20 05:32:52;;;;;;;10.55;2.05;;;2.20;99.90;;;;;;5105737;28;20113;-73
2022/01/20 05:35:18;;;;;;;8.48;1.83;;;2.20;99.90;;;;;;5097905;28;20048;-72
2022/01/20 05:37:44;;;;;;;9.77;1.88;;;2.10;99.90;;;;;;5103211;28;20040;-72
2022/01/20 05:40:09;;;;;;;6.35;2.20;;;2.10;99.90;;;;;;5102158;28;20475;-74
2022/01/20 05:42:36;;;;;;;6.20;1.73;;;2.10;99.90;;;;;;5102970;28;20044;-73
2022/01/20 05:45:07;;;;;;;8.43;2.08;;;2.20;99.90;;;;;;5101764;28;20036;-73
2022/01/20 05:47:35;;;;;;;10.52;1.73;;;2.20;99.90;;;;;;5102829;28;20115;-72
2022/01/20 05:50:01;;;;;;;6.97;1.70;;;2.20;99.90;;;;;;5102178;28;20048;-73
2022/01/20 05:52:26;;;;;;;12.23;2.45;;;2.30;99.90;;;;;;5101310;28;20112;-73
2022/01/20 05:54:52;;;;;;;4.70;2.47;;;2.30;99.90;;;;;;5102809;28;20060;-72
2022/01/20 05:57:18;;;;;;;10.23;2.05;;;2.40;99.90;;;;;;5101741;28;20040;-73
2022/01/20 05:59:44;;;;;;;9.25;2.45;;;2.60;99.90;;;;;;5102689;28;20044;-72
2022/01/20 06:02:26;;;;;;;5.78;1.73;;;2.30;99.90;;;;;;5101819;28;20079;-72
2022/01/20 06:04:52;;;;;;;6.75;1.50;;;2.30;99.90;;;;;;5101973;28;20139;-71
2022/01/20 06:07:20;;;;;;;10.07;1.77;;;2.30;99.90;;;;;;5101070;28;20154;-71
2022/01/20 06:09:46;;;;;;;6.20;1.48;;;2.30;99.90;;;;;;5101294;28;20048;-72
2022/01/20 06:12:12;;;;;;;11.93;2.72;;;2.20;99.90;;;;;;5102352;28;20480;-72
2022/01/20 06:14:37;;;;;;;9.98;2.65;;;2.20;99.90;;;;;;5101107;28;20055;-73
2022/01/20 06:17:04;;;;;;;4.07;1.23;;;2.50;99.90;;;;;;5102551;28;20488;-73
2022/01/20 06:19:30;;;;;;;6.68;1.92;;;2.10;99.90;;;;;;5101408;28;20052;-71
2022/01/20 06:21:55;;;;;;;3.20;1.10;;;2.00;99.90;;;;;;5101726;28;20097;-73
2022/01/20 06:24:21;;;;;;;5.82;1.13;;;2.00;99.90;;;;;;5101972;28;20065;-72
2022/01/20 06:26:47;;;;;;;11.20;1.73;;;1.90;99.90;;;;;;5101230;28;20526;-73
2022/01/20 06:29:13;;;;;;;7.00;1.30;;;1.90;99.90;;;;;;5116354;28;20050;-72
2022/01/20 06:31:39;;;;;;;6.75;1.70;;;1.80;99.90;;;;;;5117949;28;20059;-72
2022/01/20 06:34:04;;;;;;;9.00;1.88;;;1.80;99.90;;;;;;5101916;28;20079;-72
2022/01/20 06:36:30;;;;;;;5.50;1.25;;;2.60;99.90;;;;;;5101083;28;20488;-71
2022/01/20 06:38:56;;;;;;;8.70;1.98;;;1.70;99.90;;;;;;5101820;28;20032;-72
2022/01/20 06:41:21;;;;;;;6.88;1.52;;;1.70;99.90;;;;;;5101391;28;20040;-71
2022/01/20 06:43:47;;;;;;;6.63;1.65;;;1.70;99.90;;;;;;5100347;28;20040;-71
2022/01/20 06:46:13;;;;;;;9.00;1.65;;;1.80;99.90;;;;;;5101645;28;20408;-71
2022/01/20 06:48:39;;;;;;;7.03;1.27;;;1.80;99.90;;;;;;5100532;28;20055;-71
2022/01/20 06:51:05;;;;;;;6.30;1.48;;;1.80;99.90;;;;;;5101744;28;20044;-71
2022/01/20 06:53:30;;;;;;;4.85;1.45;;;1.80;99.90;;;;;;5100932;28;20051;-71
2022/01/20 06:55:56;;;;;;;5.32;1.50;;;1.80;99.90;;;;;;5101444;28;20044;-72
2022/01/20 06:58:23;;;;;;;15.02;2.97;;;1.80;99.90;;;;;;5100857;28;20488;-71
2022/01/20 07:00:49;;;;;;;11.05;1.88;;;1.80;99.90;;;;;;5100710;28;20040;-71
2022/01/20 07:03:14;;;;;;;10.38;1.60;;;2.00;99.90;;;;;;5101409;28;20036;-71
2022/01/20 07:05:40;;;;;;;8.88;2.22;;;1.80;99.90;;;;;;5100200;28;20492;-72
2022/01/20 07:08:06;;;;;;;11.05;2.50;;;1.80;99.90;;;;;;5100923;28;20150;-73
2022/01/20 07:10:32;;;;;;;10.25;2.33;;;1.90;99.90;;;;;;5100219;28;20048;-76
2022/01/20 07:12:57;;;;;;;7.88;1.98;;;1.80;99.90;;;;;;5101156;28;20044;-76
2022/01/20 07:15:24;;;;;;;11.98;2.10;;;1.80;99.90;;;;;;5100209;28;20043;-76
2022/01/20 07:17:49;;;;;;;16.15;3.05;;;1.60;99.90;;;;;;5100528;28;20048;-76
2022/01/20 07:20:15;;;;;;;9.63;1.88;;;1.50;99.90;;;;;;5100829;28;20113;-74
2022/01/20 07:22:41;;;;;;;7.15;1.92;;;1.40;99.90;;;;;;5100029;28;20433;-71
2022/01/20 07:25:07;;;;;;;12.35;2.38;;;1.30;99.90;;;;;;5101035;28;20540;-72
2022/01/20 07:27:33;;;;;;;14.38;2.33;;;1.30;99.90;;;;;;5100995;28;20052;-76
2022/01/20 07:29:59;;;;;;;7.88;1.58;;;1.30;99.90;;;;;;5121160;28;20094;-74
2022/01/20 07:32:25;;;;;;;6.10;1.40;;;1.30;99.90;;;;;;5110702;28;20075;-74
2022/01/20 07:34:50;;;;;;;8.80;2.10;;;1.30;99.90;;;;;;5100050;28;20043;-72
2022/01/20 07:37:16;;;;;;;6.55;1.95;;;1.30;99.90;;;;;;5100765;28;20047;-76
2022/01/20 07:39:42;;;;;;;10.80;1.90;;;1.30;99.90;;;;;;5099763;28;20047;-74
2022/01/20 07:42:08;;;;;;;16.52;2.28;;;1.40;99.90;;;;;;5100903;28;20055;-74
2022/01/20 07:44:34;;;;;;;6.72;1.70;;;1.30;99.90;;;;;;5098891;28;20542;-76
2022/01/20 07:47:00;;;;;;;11.68;2.25;;;1.30;99.90;;;;;;5100040;28;20048;-73
2022/01/20 07:49:27;;;;;;;11.55;2.13;;;1.30;99.90;;;;;;5099967;28;20059;-75
2022/01/20 07:51:53;;;;;;;7.30;1.40;;;1.30;99.90;;;;;;5100192;28;20051;-75
2022/01/20 07:54:20;;;;;;;5.82;1.52;;;1.30;99.90;;;;;;5098808;28;20044;-73
2022/01/20 07:56:49;;;;;;;11.02;2.13;;;1.30;99.90;;;;;;5099338;28;20055;-72
2022/01/20 07:59:15;;;;;;;7.18;1.65;;;1.40;99.90;;;;;;5099607;28;20044;-73
2022/01/20 08:01:41;;;;;;;9.98;2.85;;;1.40;99.90;;;;;;5099119;28;20058;-72
2022/01/20 08:04:07;;;;;;;10.43;2.55;;;1.50;99.90;;;;;;5100427;28;20036;-72
2022/01/20 08:06:33;;;;;;;5.00;1.30;;;1.50;99.90;;;;;;5099531;28;20067;-72
2022/01/20 08:08:59;;;;;;;15.40;2.35;;;1.50;99.90;;;;;;5100150;28;20047;-73
2022/01/20 08:11:25;;;;;;;7.65;2.20;;;1.50;99.90;;;;;;5099992;28;20043;-71
2022/01/20 08:13:50;;;;;;;7.60;1.45;;;1.50;99.90;;;;;;5089506;28;20515;-72
2022/01/20 08:16:17;;;;;;;7.07;1.63;;;1.50;99.90;;;;;;5099984;28;20040;-72
2022/01/20 08:18:42;;;;;;;7.22;2.10;;;1.50;99.90;;;;;;5089611;28;20044;-72
2022/01/20 08:21:08;;;;;;;11.82;2.40;;;1.50;99.90;;;;;;5098841;28;20043;-71
2022/01/20 08:23:34;;;;;;;7.72;1.85;;;1.50;99.90;;;;;;5098133;28;20715;-75
2022/01/20 08:26:00;;;;;;;5.60;1.80;;;1.60;99.90;;;;;;5098653;28;20052;-76
2022/01/20 08:28:25;;;;;;;11.85;2.20;;;1.70;99.90;;;;;;5107203;28;20040;-75
2022/01/20 08:30:51;;;;;;;9.85;1.65;;;1.70;99.90;;;;;;5111474;28;20107;-74
2022/01/20 08:33:17;;;;;;;9.98;1.80;;;1.70;99.90;;;;;;5099340;28;20555;-75
2022/01/20 08:35:44;;;;;;;6.32;1.77;;;1.80;99.90;;;;;;5097685;28;20044;-73
2022/01/20 08:38:10;;;;;;;8.65;1.50;;;1.80;99.90;;;;;;5099764;28;20064;-73
2022/01/20 08:40:36;;;;;;;5.40;1.77;;;1.80;99.90;;;;;;5098831;28;20044;-74
2022/01/20 08:43:03;;;;;;;7.55;2.15;;;1.70;99.90;;;;;;5098755;28;20040;-73
2022/01/20 08:45:31;;;;;;;9.48;1.73;;;1.80;99.90;;;;;;5097645;28;20066;-72
2022/01/20 08:47:59;;;;;;;10.23;1.90;;;1.80;99.90;;;;;;5098547;28;20039;-73
2022/01/20 08:50:27;;;;;;;5.90;1.30;;;1.90;99.90;;;;;;5099061;28;20556;-73
2022/01/20 08:52:53;;;;;;;10.30;1.65;;;1.90;99.90;;;;;;5098387;28;20096;-73
2022/01/20 08:55:19;;;;;;;8.43;2.28;;;1.90;99.90;;;;;;5098639;28;20108;-74
2022/01/20 08:57:46;;;;;;;4.38;1.10;;;1.90;99.90;;;;;;5098329;28;20044;-73
2022/01/20 09:00:13;;;;;;;7.82;1.65;;;1.80;99.90;;;;;;5098787;28;20044;-71
2022/01/20 09:02:39;;;;;;;9.50;2.55;;;1.70;99.90;;;;;;5098447;28;20048;-71
2022/01/20 09:05:05;;;;;;;6.40;2.17;;;1.70;99.90;;;;;;5097465;28;20044;-72
2022/01/20 09:07:31;;;;;;;12.90;6.95;;;1.80;99.90;;;;;;5099158;28;20096;-72
2022/01/20 09:10:00;;;;;;;18.98;2.75;;;1.90;99.90;;;;;;5098927;28;20044;-72
2022/01/20 09:17:42;;;;;;;9.57;1.85;;;2.10;99.90;;;;;;5102591;28;20044;-72
2022/01/20 09:20:08;;;;;;;7.72;2.03;;;2.10;99.90;;;;;;5102878;28;20055;-72
2022/01/20 09:22:34;;;;;;;13.90;3.58;;;2.20;99.90;;;;;;5108755;28;20047;-70
2022/01/20 09:25:00;;;;;;;8.75;2.30;;;2.50;99.90;;;;;;5122871;28;20073;-71
2022/01/20 09:27:26;;;;;;;10.70;2.53;;;2.40;99.90;;;;;;5122375;28;20043;-71
2022/01/20 09:29:51;;;;;;;8.23;1.80;;;2.50;99.90;;;;;;5081804;28;20062;-71
2022/01/20 09:32:19;;;;;;;11.18;1.90;;;2.70;99.90;;;;;;5089749;28;20123;-70
2022/01/20 09:34:46;;;;;;;8.85;1.85;;;3.40;99.90;;;;;;5092418;28;20063;-71
2022/01/20 09:37:12;;;;;;;7.32;1.25;;;2.90;99.90;;;;;;5091498;28;20089;-70
2022/01/20 09:39:39;;;;;;;7.75;1.50;;;2.80;99.90;;;;;;5090988;28;20044;-71
2022/01/20 09:42:06;;;;;;;6.32;1.55;;;2.70;99.90;;;;;;5092686;28;20668;-72
2022/01/20 09:44:32;;;;;;;6.10;1.40;;;2.60;99.90;;;;;;5101095;28;20048;-72
2022/01/20 09:46:58;;;;;;;3.53;1.13;;;2.50;99.90;;;;;;5090795;28;20041;-72
2022/01/20 09:49:24;;;;;;;7.65;1.25;;;2.50;99.90;;;;;;5083525;28;20142;-72
2022/01/20 09:51:49;;;;;;;8.55;1.83;;;2.40;99.90;;;;;;5081858;28;20044;-71
2022/01/20 09:54:16;;;;;;;5.45;1.33;;;2.40;99.90;;;;;;5118295;28;20055;-72
2022/01/20 09:56:44;;;;;;;5.97;1.17;;;2.90;99.90;;;;;;5122328;28;20067;-72
2022/01/20 09:59:11;;;;;;;6.88;1.67;;;2.70;99.90;;;;;;5122725;28;20609;-73
2022/01/20 10:01:39;;;;;;;5.90;2.25;;;3.00;99.90;;;;;;5104101;28;20048;-73
2022/01/20 10:04:05;;;;;;;5.22;1.40;;;3.60;99.90;;;;;;5102500;28;20040;-70
2022/01/20 10:06:31;;;;;;;4.72;1.20;;;3.00;99.90;;;;;;5082396;28;20036;-72
2022/01/20 10:09:01;;;;;;;3.92;1.00;;;2.90;99.90;;;;;;5081391;28;20051;-73
2022/01/20 10:11:29;;;;;;;3.92;1.00;;;2.90;99.90;;;;;;5081936;28;20108;-73
2022/01/20 10:14:00;;;;;;;4.88;1.65;;;2.80;99.90;;;;;;5080473;28;20088;-72
2022/01/20 10:16:30;;;;;;;4.22;1.30;;;2.80;99.90;;;;;;5079720;28;20476;-70
2022/01/20 10:18:59;;;;;;;3.15;0.93;;;2.90;99.90;;;;;;5080406;28;20092;-71
2022/01/20 10:21:34;;;;;;;6.05;2.17;;;2.70;99.90;;;;;;5080870;28;20052;-70
2022/01/20 10:24:08;;;;;;;7.70;1.80;;;2.60;99.90;;;;;;5080826;28;20449;-73
2022/01/20 10:26:34;;;;;;;7.53;1.95;;;2.80;99.90;;;;;;5081052;28;20055;-72
2022/01/20 10:29:09;;;;;;;7.60;2.35;;;3.50;99.90;;;;;;5107569;28;20044;-71
2022/01/20 10:31:42;;;;;;;9.43;2.35;;;3.70;99.90;;;;;;5120659;28;20046;-74
2022/01/20 10:34:18;;;;;;;8.88;1.88;;;4.20;99.90;;;;;;5121903;28;20521;-74
2022/01/20 10:36:50;;;;;;;7.18;1.88;;;4.70;99.90;;;;;;5121671;28;20047;-70
2022/01/20 10:39:16;;;;;;;11.70;2.08;;;4.90;99.90;;;;;;5121300;28;20043;-71
2022/01/20 10:41:42;;;;;;;4.63;1.35;;;5.10;99.90;;;;;;5113814;28;20067;-71
2022/01/20 10:44:10;;;;;;;10.85;2.05;;;5.30;99.90;;;;;;5115013;28;20031;-70
2022/01/20 10:46:51;;;;;;;6.95;2.15;;;5.60;99.90;;;;;;5121668;28;20043;-70
2022/01/20 10:49:18;;;;;;;6.75;1.90;;;5.90;99.90;;;;;;5091358;28;20100;-71
2022/01/20 10:51:54;;;;;;;8.15;2.13;;;6.00;99.90;;;;;;5081028;28;20044;-70
2022/01/20 10:54:20;;;;;;;;;;;6.00;99.90;;;;;;5089785;28;20519;-70
2022/01/20 10:56:53;;;;;;;4.27;1.20;;;5.80;99.90;;;;;;5099577;28;19927;-72
2022/01/20 10:59:22;;;;;;;5.35;1.55;;;5.50;99.90;;;;;;5101556;28;20078;-74
2022/01/20 11:02:08;;;;;;;8.25;2.22;;;5.50;99.90;;;;;;5100114;28;20040;-72
2022/01/20 11:04:35;;;;;;;;;;;5.60;99.90;;;;;;5099702;28;20056;-70
2022/01/20 11:07:04;;;;;;;5.47;1.70;;;5.60;99.90;;;;;;5100812;28;19939;-70
2022/01/20 11:09:33;;;;;;;13.45;1.95;;;5.50;99.90;;;;;;5100004;28;20039;-70
2022/01/20 11:12:01;;;;;;;9.80;1.65;;;5.10;99.90;;;;;;5101225;28;20488;-73
2022/01/20 11:14:28;;;;;;;5.82;2.53;;;5.30;99.90;;;;;;5099294;28;20083;-71
2022/01/20 11:16:54;;;;;;;7.72;1.95;;;5.60;99.90;;;;;;5100871;28;20036;-70
2022/01/20 11:19:21;;;;;;;10.52;1.65;;;5.30;99.90;;;;;;5100153;28;20048;-71
2022/01/20 11:21:48;;;;;;;10.38;1.73;;;4.80;99.90;;;;;;5100627;28;20047;-71
2022/01/20 11:24:23;;;;;;;10.43;1.92;;;4.40;99.90;;;;;;5100066;28;20066;-70
2022/01/20 11:27:00;;;;;;;11.82;1.92;;;4.20;99.90;;;;;;5099534;28;20052;-70
2022/01/20 11:29:38;;;;;;;8.68;2.53;;;4.20;99.90;;;;;;5100728;28;20044;-72
2022/01/20 11:32:16;;;;;;;6.35;1.85;;;4.40;99.90;;;;;;5097453;28;20143;-72
2022/01/20 11:34:54;;;;;;;7.53;1.50;;;4.60;99.90;;;;;;5099720;28;20044;-72
2022/01/20 11:37:23;;;;;;;8.20;1.80;;;4.80;99.90;;;;;;5100624;28;20506;-71
2022/01/20 11:40:06;;;;;;;7.90;1.80;;;4.70;99.90;;;;;;5099091;28;20060;-70
2022/01/20 11:42:32;;;;;;;5.97;1.30;;;4.70;99.90;;;;;;5100619;28;20095;-73
2022/01/20 11:44:58;;;;;;;7.75;1.50;;;4.90;99.90;;;;;;5098645;28;20052;-71
2022/01/20 11:47:32;;;;;;;9.43;1.67;;;5.00;99.90;;;;;;5099890;28;20073;-69
2022/01/20 11:49:58;;;;;;;13.45;1.73;;;4.90;99.90;;;;;;5100206;28;20074;-71
2022/01/20 11:52:26;;;;;;;7.22;2.33;;;4.90;99.90;;;;;;5099227;28;20040;-71
2022/01/20 11:54:52;;;;;;;7.00;1.70;;;4.70;99.90;;;;;;5099628;28;20054;-73
2022/01/20 11:57:31;;;;;;;6.07;1.85;;;4.50;99.90;;;;;;5099031;28;20504;-75
2022/01/20 12:00:00;;;;;;;5.38;1.48;;;4.20;99.90;;;;;;5100342;28;20054;-71
2022/01/20 12:02:33;;;;;;;7.78;1.85;;;3.80;99.90;;;;;;5099153;28;20050;-71
2022/01/20 12:05:05;;;;;;;5.80;1.38;;;3.80;99.90;;;;;;5098980;28;20033;-73
2022/01/20 12:07:33;;;;;;;6.72;1.55;;;3.20;99.90;;;;;;5099933;28;20070;-74
2022/01/20 12:10:21;;;;;;;8.98;2.53;;;3.20;99.90;;;;;;5098196;28;20052;-72
2022/01/20 12:12:46;;;;;;;5.28;1.75;;;3.30;99.90;;;;;;5114499;28;20054;-73
2022/01/20 12:15:17;;;;;;;9.60;1.80;;;3.30;99.90;;;;;;5118835;28;20039;-73
2022/01/20 12:17:54;;;;;;;11.63;1.75;;;3.50;99.90;;;;;;5119521;28;20171;-75
2022/01/20 12:20:22;;;;;;;6.75;1.80;;;3.70;99.90;;;;;;5120760;28;20526;-72
2022/01/20 12:22:48;;;;;;;5.70;1.33;;;3.60;99.90;;;;;;5119310;28;20538;-74
2022/01/20 12:25:26;;;;;;;4.97;1.30;;;3.40;99.90;;;;;;5119896;28;20043;-74
2022/01/20 12:28:05;;;;;;;4.28;1.17;;;3.20;99.90;;;;;;5119396;28;20134;-72
2022/01/20 12:30:31;;;;;;;7.00;1.60;;;3.00;99.90;;;;;;5096989;28;20056;-73
2022/01/20 12:33:07;;;;;;;5.53;1.30;;;2.90;99.90;;;;;;5092696;28;20085;-74
2022/01/20 12:35:51;;;;;;;5.28;0.95;;;2.80;99.90;;;;;;5098305;28;20044;-73
2022/01/20 12:38:19;;;;;;;4.32;1.00;;;2.80;99.90;;;;;;5099426;28;20044;-73
2022/01/20 12:41:03;;;;;;;4.82;0.95;;;3.20;99.90;;;;;;5097113;28;20064;-72
2022/01/20 12:43:39;;;;;;;3.75;1.08;;;3.20;99.90;;;;;;5098255;28;20070;-72
2022/01/20 12:46:06;;;;;;;3.42;0.90;;;3.50;99.90;;;;;;5098119;28;20083;-76
2022/01/20 12:48:32;;;;;;;7.40;1.58;;;3.70;99.90;;;;;;5097865;28;20036;-71
2022/01/20 12:51:05;;;;;;;3.28;1.00;;;3.50;99.90;;;;;;5099637;28;20063;-72
2022/01/20 12:53:43;;;;;;;5.45;1.15;;;3.70;99.90;;;;;;5098339;28;20044;-72
2022/01/20 12:56:11;;;;;;;7.82;1.75;;;4.00;99.90;;;;;;5098564;28;20075;-74
2022/01/20 12:59:04;;;;;;;4.15;1.38;;;4.20;99.90;;;;;;5098694;28;20736;-74
2022/01/20 13:01:42;;;;;;;7.63;1.38;;;4.20;99.90;;;;;;5097804;28;20052;-74
2022/01/20 13:04:10;;;;;;;8.23;1.52;;;4.20;99.90;;;;;;5098908;28;20119;-74
2022/01/20 13:06:40;;;;;;;5.53;1.98;;;4.30;99.90;;;;;;5098446;28;20047;-75
2022/01/20 13:09:09;;;;;;;6.57;1.95;;;4.30;99.90;;;;;;5098741;28;20063;-74
2022/01/20 13:11:44;;;;;;;7.68;1.50;;;4.20;99.90;;;;;;5099199;28;20119;-72
2022/01/20 13:14:11;;;;;;;11.63;2.90;;;4.10;99.90;;;;;;5097706;28;20048;-73
2022/01/20 13:16:49;;;;;;;4.05;1.20;;;4.10;99.90;;;;;;5098562;28;20060;-74
2022/01/20 13:19:15;;;;;;;6.97;1.63;;;4.30;99.90;;;;;;5098522;28;20376;-72
2022/01/20 13:21:52;;;;;;;8.82;1.88;;;4.30;99.90;;;;;;5098017;28;20654;-72
2022/01/20 13:24:29;;;;;;;10.18;3.55;;;4.50;99.90;;;;;;5097440;28;20063;-73
2022/01/20 13:26:57;;;;;;;7.43;1.63;;;4.60;99.90;;;;;;5097254;28;20048;-74
2022/01/20 13:29:24;;;;;;;5.82;2.13;;;4.70;99.90;;;;;;5098406;28;20055;-71
2022/01/20 13:31:55;;;;;;;10.85;2.00;;;4.80;99.90;;;;;;5096943;28;20048;-76
2022/01/20 13:34:21;;;;;;;6.00;1.48;;;4.70;99.90;;;;;;5098452;28;20059;-73
2022/01/20 13:36:49;;;;;;;12.15;2.88;;;4.50;99.90;;;;;;5098068;28;20062;-72
2022/01/20 13:39:27;;;;;;;7.53;1.95;;;4.30;99.90;;;;;;5098298;28;20043;-75
2022/01/20 13:45:13;;;;;;;8.95;2.40;;;4.00;99.90;;;;;;5096692;28;20040;-73
2022/01/20 13:47:52;;;;;;;7.68;1.88;;;4.10;99.90;;;;;;5098251;28;20040;-72
2022/01/20 13:50:26;;;;;;;10.90;2.10;;;4.20;99.90;;;;;;5098610;28;20044;-78
2022/01/20 13:52:53;;;;;;;9.90;1.90;;;4.10;99.90;;;;;;5097431;28;20585;-74
2022/01/20 13:55:29;;;;;;;8.02;1.92;;;4.00;99.90;;;;;;5098317;28;20058;-74
2022/01/20 13:57:57;;;;;;;10.40;1.80;;;3.80;99.90;;;;;;5099759;28;20052;-74
2022/01/20 14:00:26;;;;;;;9.43;1.77;;;3.70;99.90;;;;;;5101525;28;20552;-74
2022/01/20 14:02:52;;;;;;;7.38;1.70;;;3.40;99.90;;;;;;5102045;28;20518;-75
2022/01/20 14:05:20;;;;;;;5.68;1.58;;;3.40;99.90;;;;;;5100175;28;20075;-74
2022/01/20 14:07:47;;;;;;;14.18;2.70;;;3.30;99.90;;;;;;5102827;28;20048;-73